Terminal Aerodrome Forecast
Issued by NWS

Home | Current Version | Previous Version | Text Only | Print | Product List | Glossary On
Versions: 1 2 3 4 5 6 7 8 9 10 11 12 13 14
000
FTUS45 KABQ 210500
TAFLVS
TAF
KLVS 210539Z 2106/2206 02005KT P6SM SCT110
     FM211800 19013KT P6SM FEW120
     FM220300 20007KT P6SM SCT090 SCT200=

USA.gov is the U.S. government's official web portal to all federal, state and local government web resources and services.